Marshall, WA (99020)

11:14 AM PST on February 19, 2017 (GMT -0800)
Fruitvale rd / Richland rd | | Change Station

Elev 2451 ft 47.58 °N, 117.55 °W | Updated 3 seconds ago

Overcast
Overcast
36.2 °F
Feels Like 33 °F
N
4.0
Wind Variable Wind from SSE

Today
High -- | Low -- °F
--% Chance of Precip.
Yesterday
High -- | Low -- °F
Precip. -- in
Pressure 29.58 in
Visibility 5.0 miles
Clouds Mostly Cloudy 200 ft
Overcast 2000 ft
Windchill 33 °F
Dew Point 35 °F
Humidity 98%
Rainfall 0.07 in
Snow Depth Not available.
6:48 AM 5:20 PM
Last Quarter, 41% visible
METAR KGEG 191853Z 13003KT 5SM BR BKN002 OVC020 01/01 A2953 RMK AO2 SLP015 T00110006
Pressure 29.58 in
Visibility 5.0 miles
Clouds Mostly Cloudy 200 ft
Overcast 2000 ft
Windchill 33 °F
Dew Point 35 °F
Humidity 98%
Rainfall 0.07 in
Snow Depth Not available.
6:48 AM 5:20 PM
Last Quarter, 41% visible
METAR KGEG 191853Z 13003KT 5SM BR BKN002 OVC020 01/01 A2953 RMK AO2 SLP015 T00110006

Get Your Daily Forecast Email!

Thanks for signing up!

Be on the lookout for a verification email in your inbox.

You'll start receiving the daily forecast at 8 AM.

×

10-Day Weather Forecast

Almanac

Astronomy

Feb. 19, 2017 Rise Set
Actual Time
Civil Twilight
Nautical Twilight
Astronomical Twilight
Moon
Length of Visible Light
Length of Day
Tomorrow will be .
, % of the Moon is Illuminated

Today's Extremes

State Highs State Lows

Community

WunderPhotos

Upload Photos

1,962,540 photos uploaded!

WunderBlog® & News

Nearby

Air Quality

  Air Quality AQ Index Pollutant
Not available.

Snow Depth

Station Depth Elevation

Earthquake Activity

City Distance Mag. Time & Date
Minimum magnitude displayed is 2.5.

Coastal Water Temperatures

Place Temperature

Stations

Nearby Weather Stations

Station Location Temp. Windchill Dew Point Humidity Wind Precip. Elev Updated Type
                   

Watches & Warnings

There are currently no watches in effect.